Time;durP1;ratioP1;P1;durP2;ratioP2;P2;SDS_P1;SDS_P2;PMS_P1;PMS_P2;Temp;Humidity;BMP_temperature;BMP_pressure;BME280_temperature;BME280_humidity;BME280_pressure;Samples;Min_cycle;Max_cycle;Signal;HPM_P1;HPM_P2
2021/08/03 00:00:57;;;;;;;;;5.25;4.00;;;;;23.48;50.06;100887.47;5058593;28;45225;-59
2021/08/03 00:03:28;;;;;;;;;4.00;3.00;;;;;23.49;50.58;100877.72;5058453;28;45721;-58
2021/08/03 00:05:56;;;;;;;;;5.25;5.25;;;;;23.49;50.63;100877.72;5058602;28;45408;-56
2021/08/03 00:08:26;;;;;;;;;5.00;5.00;;;;;23.47;50.31;100876.03;5058723;28;45614;-55
2021/08/03 00:10:53;;;;;;;;;4.25;4.25;;;;;23.49;50.52;100883.00;5058351;28;45852;-55
2021/08/03 00:13:18;;;;;;;;;6.00;4.50;;;;;23.49;50.41;100872.44;5058488;28;45409;-53
2021/08/03 00:15:46;;;;;;;;;4.75;4.75;;;;;23.47;50.58;100876.03;5058298;28;45417;-58
2021/08/03 00:18:11;;;;;;;;;4.00;4.00;;;;;23.49;50.35;100883.00;5058704;28;45374;-54
2021/08/03 00:20:38;;;;;;;;;7.00;3.75;;;;;23.47;50.39;100876.03;5040101;28;47259;-61
2021/08/03 00:23:03;;;;;;;;;6.75;5.00;;;;;23.46;50.33;100861.09;5058512;28;45833;-59
2021/08/03 00:25:29;;;;;;;;;5.00;5.00;;;;;23.48;50.38;100861.00;5058507;28;45218;-58
2021/08/03 00:27:55;;;;;;;;;5.25;5.25;;;;;23.47;50.58;100860.16;5058162;28;45549;-59
2021/08/03 00:30:22;;;;;;;;;4.75;3.75;;;;;23.46;50.62;100861.09;5057981;28;45988;-58
2021/08/03 00:32:48;;;;;;;;;3.50;3.50;;;;;23.47;50.19;100856.66;5057956;28;45482;-59
2021/08/03 00:35:14;;;;;;;;;4.50;4.50;;;;;23.47;50.57;100860.16;5058588;28;45408;-49
2021/08/03 00:37:39;;;;;;;;;4.00;4.00;;;;;23.47;50.60;100854.84;5058548;28;45378;-54
2021/08/03 00:40:07;;;;;;;;;6.75;4.00;;;;;23.47;50.54;100848.72;5058032;28;45297;-60
2021/08/03 00:42:32;;;;;;;;;6.00;5.00;;;;;23.47;50.23;100852.22;5057850;28;45815;-58
2021/08/03 00:44:58;;;;;;;;;4.00;3.00;;;;;23.49;50.50;100848.63;5057950;28;45368;-60
2021/08/03 00:47:24;;;;;;;;;4.00;4.00;;;;;23.49;50.27;100844.16;5058105;28;45599;-57
2021/08/03 00:49:49;;;;;;;;;5.00;4.50;;;;;23.49;50.19;100840.69;5057845;28;45457;-61
2021/08/03 00:52:16;;;;;;;;;2.75;2.75;;;;;23.49;50.27;100840.69;5057984;28;45511;-60
2021/08/03 00:54:42;;;;;;;;;5.00;3.50;;;;;23.49;50.23;100840.69;5058044;28;45463;-59
2021/08/03 00:57:09;;;;;;;;;5.25;5.00;;;;;23.49;50.17;100840.69;5057368;28;45583;-59
2021/08/03 00:59:34;;;;;;;;;4.00;4.00;;;;;23.48;50.43;100839.84;5038822;28;47034;-57
2021/08/03 01:02:03;;;;;;;;;4.25;4.25;;;;;23.47;50.14;100839.00;5057395;28;45389;-61
2021/08/03 01:04:28;;;;;;;;;2.75;2.75;;;;;23.46;50.58;100834.66;5057645;28;45411;-57
2021/08/03 01:07:06;;;;;;;;;4.00;4.00;;;;;23.46;50.31;100834.66;5057793;28;45468;-58
2021/08/03 01:09:49;;;;;;;;;4.00;4.00;;;;;23.47;50.34;100835.50;5057585;28;46592;-60
2021/08/03 01:12:28;;;;;;;;;5.00;4.00;;;;;23.47;50.46;100823.13;5057789;28;45804;-60
2021/08/03 01:15:00;;;;;;;;;5.75;4.00;;;;;23.47;50.50;100827.56;5057674;28;45376;-54
2021/08/03 01:17:28;;;;;;;;;5.00;5.00;;;;;23.49;50.27;100832.75;5057707;28;45418;-58
2021/08/03 01:19:59;;;;;;;;;5.25;5.25;;;;;23.48;50.48;100829.28;5057098;28;45440;-54
2021/08/03 01:22:54;;;;;;;;;5.00;5.00;;;;;23.46;50.64;100826.72;5057269;28;45357;-56
2021/08/03 01:25:44;;;;;;;;;6.25;6.00;;;;;23.47;50.44;100823.13;5057425;28;45427;-58
2021/08/03 01:28:12;;;;;;;;;3.75;3.75;;;;;23.49;50.34;100822.16;5057640;28;45426;-55
2021/08/03 01:30:41;;;;;;;;;3.00;3.00;;;;;23.48;50.43;100818.69;5057091;28;46127;-54
2021/08/03 01:33:07;;;;;;;;;4.50;4.50;;;;;23.47;50.39;100817.81;5056967;28;45546;-58
2021/08/03 01:35:34;;;;;;;;;3.25;3.25;;;;;23.47;50.15;100811.69;5057335;28;45354;-60
2021/08/03 01:38:02;;;;;;;;;4.00;4.00;;;;;23.47;50.39;100809.06;5057331;28;45316;-57
2021/08/03 01:40:29;;;;;;;;;4.75;4.75;;;;;23.47;50.08;100812.53;5056938;28;45356;-59
2021/08/03 01:42:55;;;;;;;;;4.25;4.25;;;;;23.47;50.20;100798.47;5056879;28;45470;-60
2021/08/03 01:45:23;;;;;;;;;5.00;5.00;;;;;23.47;50.43;100807.25;5038935;28;45339;-58
2021/08/03 01:47:49;;;;;;;;;4.00;4.00;;;;;23.47;50.48;100798.47;5057094;28;45447;-56
2021/08/03 01:50:16;;;;;;;;;4.00;4.00;;;;;23.47;50.59;100803.78;5057119;28;46179;-59
2021/08/03 01:52:42;;;;;;;;;4.00;4.00;;;;;23.46;50.51;100800.25;5039127;28;45748;-60
2021/08/03 01:55:09;;;;;;;;;4.00;4.00;;;;;23.46;50.38;100794.97;5056795;28;45385;-61
2021/08/03 01:57:39;;;;;;;;;5.00;5.00;;;;;23.46;50.39;100792.31;5056915;28;45519;-58
2021/08/03 02:00:05;;;;;;;;;5.25;5.00;;;;;23.47;50.46;100796.66;5056491;28;45392;-54
2021/08/03 02:02:32;;;;;;;;;4.00;3.75;;;;;23.46;50.34;100791.50;5056807;28;45328;-53
2021/08/03 02:04:58;;;;;;;;;5.00;4.25;;;;;23.47;50.73;100799.31;5056843;28;45215;-59
2021/08/03 02:07:25;;;;;;;;;5.75;5.75;;;;;23.48;50.59;100800.19;5056811;28;45586;-61
2021/08/03 02:09:55;;;;;;;;;6.25;5.25;;;;;23.47;50.54;100796.66;5056169;28;45469;-56
2021/08/03 02:12:21;;;;;;;;;5.25;5.25;;;;;23.47;50.44;100807.25;5056322;28;45396;-55
2021/08/03 02:14:46;;;;;;;;;4.00;4.00;;;;;23.48;50.20;100813.41;5056910;28;45320;-59
2021/08/03 02:17:22;;;;;;;;;5.25;4.50;;;;;23.47;50.26;100809.06;5056708;28;45487;-50
2021/08/03 02:19:49;;;;;;;;;3.75;3.75;;;;;23.47;50.51;100815.19;5056632;28;45360;-57
2021/08/03 02:22:17;;;;;;;;;6.75;5.00;;;;;23.47;50.63;100815.19;5038852;28;45734;-60
2021/08/03 02:24:43;;;;;;;;;6.25;5.25;;;;;23.46;50.59;100813.47;5056506;28;45364;-57
2021/08/03 02:27:08;;;;;;;;;6.00;6.00;;;;;23.47;50.38;100817.00;5056444;28;45471;-57
2021/08/03 02:29:36;;;;;;;;;4.00;4.00;;;;;23.46;50.25;100821.41;5056126;28;46217;-61
2021/08/03 02:32:06;;;;;;;;;6.00;6.00;;;;;23.47;50.34;100817.00;5056250;28;45710;-57
2021/08/03 02:34:38;;;;;;;;;7.75;7.25;;;;;23.46;50.48;100805.56;5056198;28;45261;-56
2021/08/03 02:37:09;;;;;;;;;6.00;4.75;;;;;23.46;50.56;100802.06;5056454;28;45778;-55
2021/08/03 02:39:36;;;;;;;;;6.00;6.00;;;;;23.46;50.26;100794.97;5055890;28;45321;-52
2021/08/03 02:42:03;;;;;;;;;5.25;4.50;;;;;23.46;50.19;100804.72;5056128;28;45819;-52
2021/08/03 02:44:30;;;;;;;;;4.50;4.50;;;;;23.45;50.45;100803.84;5056362;28;45340;-57
2021/08/03 02:46:58;;;;;;;;;8.75;5.00;;;;;23.45;50.42;100803.84;5056214;28;45331;-58
2021/08/03 02:49:35;;;;;;;;;5.50;5.50;;;;;23.45;50.15;100795.91;5056033;28;45475;-59
2021/08/03 02:52:04;;;;;;;;;5.50;5.50;;;;;23.45;50.33;100793.28;5056300;28;45658;-53
2021/08/03 02:54:35;;;;;;;;;5.00;5.00;;;;;23.46;50.22;100796.78;5056234;28;45427;-58
2021/08/03 02:57:03;;;;;;;;;5.00;5.00;;;;;23.44;50.62;100802.16;5056359;28;45515;-58
2021/08/03 02:59:34;;;;;;;;;7.25;5.50;;;;;23.44;50.73;100804.81;5056052;28;46866;-60
2021/08/03 03:02:03;;;;;;;;;7.00;4.50;;;;;23.43;50.60;100797.81;5056047;28;45511;-60
2021/08/03 03:04:29;;;;;;;;;7.00;6.00;;;;;23.42;50.48;100793.50;5056001;28;45455;-51
2021/08/03 03:06:58;;;;;;;;;6.00;5.00;;;;;23.41;50.35;100798.88;5055971;28;45419;-47
2021/08/03 03:09:27;;;;;;;;;5.25;4.25;;;;;23.39;50.64;100799.00;5055354;28;45490;-56
2021/08/03 03:11:54;;;;;;;;;5.00;5.00;;;;;23.39;50.76;100793.69;5055989;28;45168;-50
2021/08/03 03:14:22;;;;;;;;;6.25;5.75;;;;;23.37;50.48;100790.31;5056213;28;45293;-60
2021/08/03 03:16:50;;;;;;;;;7.25;5.25;;;;;23.38;50.66;100791.16;5056219;28;45438;-53
2021/08/03 03:19:20;;;;;;;;;5.50;5.50;;;;;23.37;50.99;100785.03;5055321;28;45820;-59
2021/08/03 03:21:48;;;;;;;;;8.25;6.75;;;;;23.37;51.12;100785.03;5057848;28;45743;-60
2021/08/03 03:24:14;;;;;;;;;5.50;5.00;;;;;23.37;50.85;100782.38;5024543;28;45479;-59
2021/08/03 03:26:42;;;;;;;;;4.00;4.00;;;;;23.37;51.10;100777.09;5059377;28;45241;-61
2021/08/03 03:29:09;;;;;;;;;4.00;4.00;;;;;23.36;50.87;100771.91;5059266;28;45368;-56
2021/08/03 03:31:34;;;;;;;;;5.75;5.75;;;;;23.36;50.83;100785.97;5041183;28;45267;-58
2021/08/03 03:34:06;;;;;;;;;5.00;4.00;;;;;23.35;50.47;100765.75;5058875;28;45638;-56
2021/08/03 03:36:33;;;;;;;;;5.00;5.00;;;;;23.36;50.72;100769.28;5059176;28;45529;-57
2021/08/03 03:39:00;;;;;;;;;5.25;5.25;;;;;23.35;50.73;100765.75;5058988;28;45470;-58
2021/08/03 03:41:27;;;;;;;;;4.00;4.00;;;;;23.36;51.00;100772.75;5058373;28;45809;-59
2021/08/03 03:43:53;;;;;;;;;4.00;4.00;;;;;23.35;50.60;100772.88;5059298;28;45459;-58
2021/08/03 03:46:21;;;;;;;;;4.25;4.25;;;;;23.35;50.95;100771.06;5059109;28;45408;-58
2021/08/03 03:49:02;;;;;;;;;5.00;5.00;;;;;23.34;50.61;100779.94;5058846;28;46297;-59
2021/08/03 03:51:29;;;;;;;;;4.00;4.00;;;;;23.33;50.66;100783.53;5058891;28;45336;-60
2021/08/03 03:54:01;;;;;;;;;7.00;6.50;;;;;23.35;50.82;100778.97;5058751;28;45391;-53
2021/08/03 03:56:31;;;;;;;;;4.50;4.25;;;;;23.32;50.51;100781.84;5058966;28;45368;-60
2021/08/03 03:59:01;;;;;;;;;5.25;4.75;;;;;23.33;50.86;100783.53;5058522;28;45253;-60
2021/08/03 04:01:27;;;;;;;;;4.50;4.50;;;;;23.33;50.90;100794.09;5058397;28;45813;-53
2021/08/03 04:03:57;;;;;;;;;5.00;5.00;;;;;23.33;50.69;100790.63;5058958;28;45379;-55
2021/08/03 04:06:24;;;;;;;;;5.00;5.00;;;;;23.31;50.34;100785.47;5059196;28;45258;-56
2021/08/03 04:08:49;;;;;;;;;7.00;5.00;;;;;23.32;50.83;100784.47;5058228;28;45359;-52
2021/08/03 04:11:16;;;;;;;;;6.00;5.00;;;;;23.31;50.47;100785.47;5058440;28;45444;-56
2021/08/03 04:13:48;;;;;;;;;5.00;5.00;;;;;23.32;50.54;100787.13;5058633;28;45460;-58
2021/08/03 04:16:14;;;;;;;;;6.00;6.00;;;;;23.31;50.73;100788.94;5040689;28;45281;-58
2021/08/03 04:18:39;;;;;;;;;4.00;4.00;;;;;23.31;50.63;100798.69;5058304;28;45332;-56
2021/08/03 04:21:04;;;;;;;;;7.00;5.00;;;;;23.32;50.86;100803.00;5058252;28;45395;-58
2021/08/03 04:23:30;;;;;;;;;6.00;6.00;;;;;23.31;50.55;100799.50;5058429;28;45530;-51
2021/08/03 04:25:55;;;;;;;;;5.25;5.25;;;;;23.31;50.58;100806.63;5058521;28;45390;-56
2021/08/03 04:28:21;;;;;;;;;5.00;5.00;;;;;23.29;50.89;100804.06;5039797;28;46849;-52
2021/08/03 04:30:47;;;;;;;;;6.00;5.25;;;;;23.28;50.43;100796.22;5058140;28;45349;-53
2021/08/03 04:33:13;;;;;;;;;6.00;5.00;;;;;23.28;50.67;100798.88;5058059;28;45427;-56
2021/08/03 04:35:38;;;;;;;;;6.00;5.00;;;;;23.26;50.73;100798.13;5058340;28;45610;-58
2021/08/03 04:38:04;;;;;;;;;5.00;5.00;;;;;23.25;51.01;100791.16;5058006;28;46182;-58
2021/08/03 04:40:29;;;;;;;;;4.75;4.75;;;;;23.24;50.74;100790.31;5057869;28;45484;-58
2021/08/03 04:42:55;;;;;;;;;6.25;5.50;;;;;23.24;50.87;100789.44;5058397;28;45674;-57
2021/08/03 04:45:20;;;;;;;;;6.25;6.25;;;;;23.22;50.79;100781.63;5058201;28;45278;-60
2021/08/03 04:47:47;;;;;;;;;4.00;4.00;;;;;23.22;51.06;100784.28;5057706;28;45504;-57
2021/08/03 04:50:16;;;;;;;;;5.00;5.00;;;;;23.22;51.15;100781.63;5057941;28;45672;-61
2021/08/03 04:52:42;;;;;;;;;7.75;6.50;;;;;23.20;51.26;100765.03;5057980;28;45893;-61
2021/08/03 04:55:08;;;;;;;;;4.00;4.00;;;;;23.21;51.01;100771.13;5057824;28;45534;-59
2021/08/03 04:57:34;;;;;;;;;4.25;4.25;;;;;23.22;50.90;100770.19;5057621;28;46171;-57
2021/08/03 04:59:59;;;;;;;;;5.25;5.25;;;;;23.23;51.09;100766.59;5057419;28;45396;-60
2021/08/03 05:02:25;;;;;;;;;6.00;6.00;;;;;23.24;51.15;100774.44;5058160;28;45689;-57
2021/08/03 05:04:50;;;;;;;;;4.00;4.00;;;;;23.22;51.27;100776.34;5057935;28;45372;-54
2021/08/03 05:07:16;;;;;;;;;4.00;4.00;;;;;23.23;50.76;100777.19;5057188;28;46178;-61
2021/08/03 05:09:41;;;;;;;;;3.25;2.50;;;;;23.21;50.15;100773.78;5057450;28;45440;-60
2021/08/03 05:12:06;;;;;;;;;2.50;2.50;;;;;23.15;50.20;100770.59;5057685;28;45335;-50
2021/08/03 05:14:32;;;;;;;;;2.00;2.00;;;;;23.13;50.01;100767.19;5057767;28;45428;-58
2021/08/03 05:16:57;;;;;;;;;2.00;2.00;;;;;23.09;50.08;100773.66;5057754;28;45335;-59
2021/08/03 05:19:23;;;;;;;;;4.00;4.00;;;;;23.07;49.93;100779.97;5057760;28;45351;-57
2021/08/03 05:21:48;;;;;;;;;4.00;2.25;;;;;23.02;49.93;100775.00;5057353;28;45142;-59
2021/08/03 05:24:13;;;;;;;;;1.00;1.00;;;;;22.99;49.61;100778.72;5057307;28;45443;-60
2021/08/03 05:26:39;;;;;;;;;2.00;2.00;;;;;22.97;49.57;100777.13;5057237;28;46209;-58
2021/08/03 05:29:04;;;;;;;;;2.00;2.00;;;;;22.95;49.74;100779.84;5057172;28;45377;-49
2021/08/03 05:31:29;;;;;;;;;1.00;1.00;;;;;22.94;49.30;100787.88;5057422;28;45547;-52
2021/08/03 05:33:55;;;;;;;;;1.00;1.00;;;;;22.92;49.13;100788.00;5057762;28;45534;-49
2021/08/03 05:36:21;;;;;;;;;0.00;0.00;;;;;22.90;49.16;100784.59;5039039;28;46954;-54
2021/08/03 05:38:46;;;;;;;;;1.00;1.00;;;;;22.88;49.04;100788.28;5056767;28;45372;-49
2021/08/03 05:41:11;;;;;;;;;0.75;0.75;;;;;22.85;49.07;100784.91;5057104;28;45326;-56
2021/08/03 05:43:37;;;;;;;;;0.75;0.75;;;;;22.83;48.92;100778.88;5056677;28;45518;-47
2021/08/03 05:46:02;;;;;;;;;1.00;1.00;;;;;22.82;49.09;100777.19;5056868;28;46289;-52
2021/08/03 05:48:28;;;;;;;;;0.00;0.00;;;;;22.81;48.95;100780.78;5057123;28;45522;-52
2021/08/03 05:50:53;;;;;;;;;1.00;1.00;;;;;22.81;48.97;100785.22;5057157;28;45439;-56
2021/08/03 05:53:19;;;;;;;;;1.00;1.00;;;;;22.80;48.91;100787.00;5039190;28;45494;-54
2021/08/03 05:55:44;;;;;;;;;0.75;0.75;;;;;22.79;48.92;100795.03;5056716;28;46090;-60
2021/08/03 05:58:09;;;;;;;;;0.00;0.00;;;;;22.78;48.98;100788.88;5056811;28;45407;-55
2021/08/03 06:00:36;;;;;;;;;1.50;1.25;;;;;22.76;49.13;100793.44;5056849;28;45360;-58
2021/08/03 06:03:02;;;;;;;;;0.50;0.50;;;;;22.75;49.22;100793.53;5056851;28;45364;-56
2021/08/03 06:05:30;;;;;;;;;1.00;1.00;;;;;22.73;49.26;100798.06;5057079;28;45264;-50
2021/08/03 06:07:59;;;;;;;;;2.00;1.00;;;;;22.70;49.48;100796.47;5056070;28;45822;-52
2021/08/03 06:10:27;;;;;;;;;1.50;1.50;;;;;22.68;49.57;100793.94;5056939;28;45687;-55
2021/08/03 06:12:55;;;;;;;;;3.00;2.00;;;;;22.66;49.85;100798.47;5056935;28;45690;-57
2021/08/03 06:15:21;;;;;;;;;2.00;2.00;;;;;22.64;49.74;100802.19;5056597;28;45592;-55
2021/08/03 06:17:59;;;;;;;;;2.00;2.00;;;;;22.62;49.87;100807.53;5056381;28;45459;-54
2021/08/03 06:20:25;;;;;;;;;1.00;1.00;;;;;22.60;50.10;100806.78;5056586;28;45315;-55
2021/08/03 06:22:51;;;;;;;;;2.00;2.00;;;;;22.58;50.19;100807.84;5056782;28;45997;-55
2021/08/03 06:25:16;;;;;;;;;2.50;2.50;;;;;22.54;50.03;100801.91;5056333;28;45965;-54
2021/08/03 06:27:43;;;;;;;;;3.00;3.00;;;;;22.52;50.20;100803.81;5056363;28;45269;-56
2021/08/03 06:30:08;;;;;;;;;2.75;2.75;;;;;22.49;50.40;100804.84;5038239;28;45358;-51
2021/08/03 06:32:34;;;;;;;;;3.25;3.25;;;;;22.47;50.51;100814.66;5056278;28;45360;-58
2021/08/03 06:35:01;;;;;;;;;3.25;3.25;;;;;22.47;50.71;100814.66;5056314;28;45620;-58
2021/08/03 06:37:27;;;;;;;;;3.75;3.75;;;;;22.46;50.81;100818.25;5056456;28;45865;-57
2021/08/03 06:39:52;;;;;;;;;6.00;3.75;;;;;22.45;50.89;100813.91;5056297;28;45427;-60
2021/08/03 06:42:36;;;;;;;;;4.00;3.50;;;;;22.44;50.70;100814.84;5055953;28;45524;-61
2021/08/03 06:45:03;;;;;;;;;5.75;3.00;;;;;22.44;51.17;100820.13;5056384;28;46147;-60
2021/08/03 06:47:49;;;;;;;;;4.00;4.00;;;;;22.43;51.16;100823.75;5038026;28;46054;-57
2021/08/03 06:50:17;;;;;;;;;6.25;4.25;;;;;22.44;51.07;100821.94;5056040;28;45438;-56
2021/08/03 06:52:43;;;;;;;;;6.25;5.25;;;;;22.44;51.07;100828.06;5056176;28;45302;-61
2021/08/03 06:55:12;;;;;;;;;3.00;3.00;;;;;22.45;50.83;100819.19;5055869;28;45367;-57
2021/08/03 06:57:48;;;;;;;;;3.25;3.25;;;;;22.43;50.63;100821.09;5059235;28;45482;-60
2021/08/03 07:00:14;;;;;;;;;3.00;2.50;;;;;22.39;50.33;100827.47;5059396;28;45479;-56
2021/08/03 07:02:44;;;;;;;;;3.50;3.50;;;;;22.35;50.73;100831.25;5059810;28;45538;-58
2021/08/03 07:05:25;;;;;;;;;3.00;3.00;;;;;22.29;51.02;100832.50;5059490;28;46087;-57
2021/08/03 07:07:56;;;;;;;;;3.25;3.00;;;;;22.25;50.61;100838.94;5059323;28;45361;-50
2021/08/03 07:10:22;;;;;;;;;5.75;3.50;;;;;22.22;50.65;100839.09;5059362;28;45406;-55
2021/08/03 07:12:49;;;;;;;;;4.25;4.25;;;;;22.17;50.81;100842.03;5059530;28;45590;-57
2021/08/03 07:15:16;;;;;;;;;4.50;4.50;;;;;22.13;51.04;100845.81;5059305;28;46775;-57
2021/08/03 07:17:42;;;;;;;;;5.00;5.00;;;;;22.11;51.33;100842.41;5059246;28;45367;-58
2021/08/03 07:20:11;;;;;;;;;5.00;3.75;;;;;22.08;51.47;100837.34;5041351;28;45407;-55
2021/08/03 07:22:38;;;;;;;;;5.00;3.50;;;;;22.05;51.29;100841.00;5059575;28;45560;-60
2021/08/03 07:25:05;;;;;;;;;3.25;3.25;;;;;22.04;51.44;100843.72;5059059;28;46346;-55
2021/08/03 07:27:31;;;;;;;;;4.00;4.00;;;;;22.01;51.39;100846.56;5059424;28;45743;-58
2021/08/03 07:29:57;;;;;;;;;4.00;3.00;;;;;21.99;51.16;100848.47;5059083;28;45374;-53
2021/08/03 07:32:22;;;;;;;;;4.00;2.75;;;;;21.97;51.29;100848.53;5041129;28;45226;-57
2021/08/03 07:34:48;;;;;;;;;4.25;3.25;;;;;21.95;51.04;100857.50;5024115;28;47054;-54
2021/08/03 07:37:13;;;;;;;;;4.50;4.50;;;;;21.92;51.31;100854.09;5058688;28;46530;-59
2021/08/03 07:39:40;;;;;;;;;3.75;3.00;;;;;21.91;51.33;100860.31;5058871;28;45288;-55
2021/08/03 07:42:07;;;;;;;;;3.00;3.00;;;;;21.90;51.17;100861.25;5058930;28;45419;-56
2021/08/03 07:44:33;;;;;;;;;3.00;2.00;;;;;21.87;51.02;100855.31;5059127;28;46373;-60
2021/08/03 07:46:59;;;;;;;;;2.50;2.50;;;;;21.86;51.48;100857.13;5058684;28;45759;-60
2021/08/03 07:49:24;;;;;;;;;2.25;2.25;;;;;21.84;51.21;100851.09;5058620;28;45400;-58
2021/08/03 07:51:52;;;;;;;;;3.00;3.00;;;;;21.86;50.96;100846.56;5059145;28;45619;-56
2021/08/03 07:54:18;;;;;;;;;5.00;2.00;;;;;21.85;51.08;100844.88;5058351;28;46161;-58
2021/08/03 07:56:43;;;;;;;;;3.00;3.00;;;;;21.79;50.85;100847.88;5058676;28;45712;-56
2021/08/03 07:59:08;;;;;;;;;2.50;2.25;;;;;21.81;51.50;100840.72;5058630;28;45252;-59
2021/08/03 08:01:34;;;;;;;;;2.00;2.00;;;;;21.83;51.13;100846.75;5058812;28;45749;-58
2021/08/03 08:03:59;;;;;;;;;2.75;2.75;;;;;21.87;51.32;100848.28;5040314;28;48442;-58
2021/08/03 08:06:25;;;;;;;;;4.75;4.75;;;;;21.90;51.38;100845.44;5057856;28;45367;-56
2021/08/03 08:08:50;;;;;;;;;2.25;2.25;;;;;21.93;51.24;100842.59;5058509;28;45418;-58
2021/08/03 08:11:15;;;;;;;;;2.00;2.00;;;;;21.95;50.77;100847.78;5058823;28;45376;-58
2021/08/03 08:13:41;;;;;;;;;3.00;3.00;;;;;21.97;50.79;100847.72;5058253;28;46150;-60
2021/08/03 08:16:06;;;;;;;;;3.00;3.00;;;;;21.99;50.79;100844.03;5058613;28;45305;-52
2021/08/03 08:18:32;;;;;;;;;2.50;2.50;;;;;22.03;50.86;100844.69;5058728;28;45359;-59
2021/08/03 08:20:58;;;;;;;;;3.50;3.50;;;;;22.06;50.68;100840.06;5058665;28;45333;-57
2021/08/03 08:23:23;;;;;;;;;3.75;3.75;;;;;22.07;50.76;100835.63;5039844;28;47290;-54
2021/08/03 08:25:49;;;;;;;;;4.00;4.00;;;;;22.08;50.88;100832.06;5057914;28;45350;-60
2021/08/03 08:28:15;;;;;;;;;4.00;4.00;;;;;22.12;50.98;100835.34;5058348;28;45423;-53
2021/08/03 08:30:40;;;;;;;;;4.25;3.00;;;;;22.13;50.71;100835.25;5058458;28;45290;-61
2021/08/03 08:33:06;;;;;;;;;3.75;3.75;;;;;22.13;51.02;100840.53;5058413;28;46150;-54
2021/08/03 08:35:32;;;;;;;;;3.00;3.00;;;;;22.14;50.82;100836.94;5058242;28;45471;-60
2021/08/03 08:37:59;;;;;;;;;5.75;4.00;;;;;22.17;51.16;100830.63;5057888;28;45446;-58
2021/08/03 08:40:24;;;;;;;;;4.00;4.00;;;;;22.20;50.76;100841.84;5058376;28;45479;-58
2021/08/03 08:42:49;;;;;;;;;4.00;4.00;;;;;22.24;50.84;100838.06;5057971;28;46421;-54
2021/08/03 08:45:16;;;;;;;;;2.75;2.75;;;;;22.31;50.61;100832.41;5040000;28;45309;-50
2021/08/03 08:47:46;;;;;;;;;4.25;4.25;;;;;22.36;50.90;100835.59;5039880;28;45434;-61
2021/08/03 08:50:13;;;;;;;;;3.00;3.00;;;;;22.42;50.48;100829.97;5056161;28;45526;-57
2021/08/03 08:52:40;;;;;;;;;4.00;3.00;;;;;22.48;50.17;100832.22;5056755;28;45515;-57
2021/08/03 08:55:09;;;;;;;;;5.50;3.00;;;;;22.54;50.36;100829.16;5057228;28;45422;-51
2021/08/03 08:57:36;;;;;;;;;2.25;2.25;;;;;22.60;50.37;100827.09;5057921;28;45454;-50
2021/08/03 09:00:04;;;;;;;;;4.25;3.00;;;;;22.65;50.00;100839.06;5057784;28;45499;-49
2021/08/03 09:02:53;;;;;;;;;5.00;4.00;;;;;22.68;49.90;100833.59;5056798;28;45406;-56
2021/08/03 09:05:39;;;;;;;;;3.50;3.50;;;;;22.72;49.79;100839.50;5039449;28;46567;-52
2021/08/03 09:08:06;;;;;;;;;6.00;4.25;;;;;22.75;49.84;100847.25;5057815;28;45522;-61
2021/08/03 09:10:36;;;;;;;;;4.00;4.00;;;;;22.77;49.73;100834.75;5057672;28;45446;-57
2021/08/03 09:13:07;;;;;;;;;3.25;3.25;;;;;22.79;49.54;100838.16;5057203;28;46322;-56
2021/08/03 09:15:35;;;;;;;;;4.00;4.00;;;;;22.82;49.55;100837.97;5057077;28;45805;-50
2021/08/03 09:18:18;;;;;;;;;3.75;3.00;;;;;22.87;49.44;100844.75;5056815;28;45359;-58
2021/08/03 09:20:46;;;;;;;;;4.00;4.00;;;;;22.90;49.43;100842.75;5057273;28;45380;-60
2021/08/03 09:23:12;;;;;;;;;3.00;3.00;;;;;22.94;49.29;100838.94;5055867;28;45391;-58
2021/08/03 09:25:39;;;;;;;;;3.50;3.50;;;;;22.96;49.14;100837.03;5039451;28;45511;-51
2021/08/03 09:28:08;;;;;;;;;2.00;2.00;;;;;23.00;49.26;100835.03;5057339;28;45558;-59
2021/08/03 09:30:37;;;;;;;;;4.00;4.00;;;;;23.02;49.09;100838.44;5057662;28;45544;-55
2021/08/03 09:33:05;;;;;;;;;4.00;4.00;;;;;23.05;48.89;100843.53;5056970;28;46186;-61
2021/08/03 09:35:32;;;;;;;;;5.00;3.50;;;;;23.09;48.91;100836.25;5056664;28;45297;-55
2021/08/03 09:37:58;;;;;;;;;3.50;3.50;;;;;23.11;48.71;100840.47;5056887;28;45269;-57
2021/08/03 09:40:25;;;;;;;;;3.00;3.00;;;;;23.13;48.75;100835.94;5057174;28;45572;-59
2021/08/03 09:43:00;;;;;;;;;4.00;4.00;;;;;23.15;48.58;100847.25;5038801;28;46014;-58
2021/08/03 09:45:26;;;;;;;;;3.00;3.00;;;;;23.16;48.35;100843.66;5056946;28;45399;-57
2021/08/03 09:48:05;;;;;;;;;2.00;2.00;;;;;23.17;48.43;100834.78;5056787;28;45419;-59
2021/08/03 09:50:30;;;;;;;;;5.00;5.00;;;;;23.18;48.38;100835.63;5057075;28;45425;-63
2021/08/03 09:52:56;;;;;;;;;3.00;3.00;;;;;23.20;48.25;100833.75;5056509;28;45371;-56
2021/08/03 09:55:22;;;;;;;;;3.00;3.00;;;;;23.20;48.27;100827.63;5056751;28;45379;-59
2021/08/03 09:57:48;;;;;;;;;7.00;3.00;;;;;23.20;48.07;100825.00;5056912;28;45265;-56
2021/08/03 10:00:37;;;;;;;;;3.00;3.00;;;;;23.20;47.92;100831.13;5056125;28;45479;-54
2021/08/03 10:03:04;;;;;;;;;3.50;2.50;;;;;23.19;47.90;100833.84;5053417;28;45627;-56
2021/08/03 10:05:30;;;;;;;;;3.75;3.75;;;;;23.17;47.68;100826.84;5024305;28;45846;-61
2021/08/03 10:07:57;;;;;;;;;3.25;3.25;;;;;23.19;47.93;100831.19;5056553;28;45397;-56
2021/08/03 10:10:23;;;;;;;;;6.25;4.75;;;;;23.16;47.70;100835.75;5038751;28;45427;-62
2021/08/03 10:12:49;;;;;;;;;5.00;4.00;;;;;23.17;47.68;100834.78;5056452;28;46513;-58
2021/08/03 10:15:14;;;;;;;;;4.75;4.50;;;;;23.17;48.02;100832.16;5055420;28;45628;-57
2021/08/03 10:17:40;;;;;;;;;2.75;2.75;;;;;23.19;47.77;100839.13;5056328;28;45422;-54
2021/08/03 10:20:08;;;;;;;;;2.75;2.75;;;;;23.18;47.79;100838.28;5038638;28;45534;-53
2021/08/03 10:23:04;;;;;;;;;3.75;3.75;;;;;23.17;47.64;100833.94;5056466;28;47297;-54
2021/08/03 10:25:42;;;;;;;;;4.75;4.00;;;;;23.16;47.61;100834.88;5032268;28;45547;-58
2021/08/03 10:28:20;;;;;;;;;4.00;4.00;;;;;23.15;47.51;100834.03;5056907;28;45269;-49
2021/08/03 10:30:45;;;;;;;;;4.00;3.75;;;;;23.15;47.77;100831.41;5056509;28;45491;-56
2021/08/03 10:33:36;;;;;;;;;4.00;3.00;;;;;23.16;47.49;100835.75;5038406;28;48809;-57
2021/08/03 10:36:02;;;;;;;;;4.25;4.25;;;;;23.16;47.71;100827.81;5056389;28;45688;-60
2021/08/03 10:38:30;;;;;;;;;4.00;3.00;;;;;23.17;47.78;100818.06;5055757;28;45791;-50
2021/08/03 10:40:57;;;;;;;;;4.00;4.00;;;;;23.16;47.69;100819.88;5055806;28;45832;-57
2021/08/03 10:43:24;;;;;;;;;5.00;4.00;;;;;23.17;47.52;100815.41;5055983;28;47145;-57
2021/08/03 10:46:08;;;;;;;;;6.50;4.00;;;;;23.16;47.64;100819.88;5056229;28;45837;-59
2021/08/03 10:48:39;;;;;;;;;4.00;4.00;;;;;23.16;47.68;100825.16;5056500;28;45412;-57
2021/08/03 10:51:17;;;;;;;;;4.75;4.00;;;;;23.15;47.57;100815.53;5056674;28;45502;-55
2021/08/03 10:54:11;;;;;;;;;3.00;3.00;;;;;23.15;47.66;100818.19;5056602;28;45476;-55
2021/08/03 10:56:52;;;;;;;;;5.50;5.50;;;;;23.14;47.58;100826.22;5053826;28;45442;-60
2021/08/03 10:59:40;;;;;;;;;5.75;4.25;;;;;23.13;47.52;100817.44;5038292;28;45335;-60
2021/08/03 11:02:07;;;;;;;;;4.00;4.00;;;;;23.13;47.65;100822.72;5056561;28;45374;-58
2021/08/03 11:04:42;;;;;;;;;3.25;3.25;;;;;23.13;47.99;100825.34;5056147;28;46034;-57
2021/08/03 11:07:26;;;;;;;;;4.00;4.00;;;;;23.13;47.77;100827.16;5037997;28;45382;-57
2021/08/03 11:09:55;;;;;;;;;4.50;3.00;;;;;23.12;47.65;100823.66;5056250;28;45464;-57
2021/08/03 11:12:33;;;;;;;;;8.25;4.25;;;;;23.12;47.60;100834.25;5056199;28;45523;-56
2021/08/03 11:14:59;;;;;;;;;5.00;5.00;;;;;23.12;47.35;100836.88;5055968;28;47061;-56
2021/08/03 11:17:50;;;;;;;;;4.25;4.25;;;;;23.13;47.11;100840.38;5044199;28;46197;-51
2021/08/03 11:20:33;;;;;;;;;5.00;5.00;;;;;23.13;46.80;100835.09;5054220;28;45442;-50
2021/08/03 11:22:59;;;;;;;;;4.50;3.50;;;;;23.12;47.07;100839.53;5055612;28;45319;-58
2021/08/03 11:25:25;;;;;;;;;5.75;4.75;;;;;23.12;46.85;100834.25;5055022;28;46601;-54
2021/08/03 11:27:51;;;;;;;;;4.00;4.00;;;;;23.12;46.89;100831.59;5053826;28;45278;-61
2021/08/03 11:30:16;;;;;;;;;5.50;4.50;;;;;23.12;46.89;100826.31;5045844;28;45378;-56